Форум клана ЧПУшников

Информация о пользователе

Привет, Гость! Войдите или зарегистрируйтесь.


Вы здесь » Форум клана ЧПУшников » Лазерные станки


Лазерные станки

Тем 241 страница 320 из 426

Тема Ответов Просмотров Последнее сообщение
7 384 16-08-2016 14:15:08  Юрий Анатольевич
21 715 06-08-2016 12:42:16  vasa29
21 886 29-07-2016 11:28:19  ЫХ-000
3 169 25-07-2016 12:13:13  Kuz
1 243 20-07-2016 16:00:47  Maxim Korolev
6 423 19-07-2016 20:00:25  YuSTas
2 101 18-07-2016 10:25:53  byshaeva
81 2346 17-07-2016 11:06:33  Сергей Кравчик
249 покупаем лазер  sergeywopros
15 2368 13-07-2016 23:39:56  skydmit
118 5678 11-07-2016 12:21:21  f.laser
2 233 09-07-2016 14:27:04  Killa312
11 524 07-07-2016 15:18:42  Hotory
25 655 27-06-2016 21:44:32  Salon-max
38 2010 27-06-2016 05:30:23  Юрецкий
14 403 26-06-2016 11:49:07  Quark
48 1146 24-06-2016 20:06:01  Иван1985
9 581 24-06-2016 19:54:50  Иван1985
16 622 24-06-2016 15:25:23  Sergey AA
2 102 24-06-2016 12:14:53  messer1988
8 442 22-06-2016 15:04:25  Sergey AA
8 635 16-06-2016 22:36:09  megagad
4 311 12-06-2016 18:36:42  *SvEtLaNKa*
207 17436 12-06-2016 11:02:33  Andrey55
4 215 06-06-2016 09:19:33  Zmeei
24 813 02-06-2016 16:29:32  Sofka
16 354 02-06-2016 09:43:13  ilcomp
3 131 31-05-2016 11:04:49  SmileCat
14 444 29-05-2016 10:38:37  Neudrums
19 855 28-05-2016 00:03:48  Sborka
124 11082 26-05-2016 03:33:17  Luaz007
19 226 25-05-2016 12:15:46  Mikky
8 388 24-05-2016 15:31:24  sonr
21 1743 23-05-2016 23:42:46  Avel
274 Волнистый рез  angrydemon
4 205 23-05-2016 17:44:30  YuSTas
2 113 05-05-2016 11:02:05  Kuz
7 408 04-05-2016 01:16:19  snowman
10 300 28-04-2016 20:21:01  Kirian
1 133 28-04-2016 19:58:34  Kirian
37 996 28-04-2016 14:14:04  neotex
3 520 27-04-2016 20:39:04  andrey_e
6 261 27-04-2016 16:16:09  denisej
282 Reci s2  Neudrums
35 861 26-04-2016 21:17:31  Элинка
5 442 25-04-2016 16:52:18  MPN
15 1172 23-04-2016 22:53:06  Sokrat
9 422 23-04-2016 17:45:11  Tab
35 938 23-04-2016 13:05:00  Valera5609
20 659 21-04-2016 12:48:47  Silmaril
18 926 21-04-2016 12:07:58  f.laser
1 154 17-04-2016 23:10:04  megagad
290 Резка с углекислотой  Виктор Краски
23 671 17-04-2016 08:59:55  Flint2015
13 1783 15-04-2016 11:34:20  ImageLaser
11 261 11-04-2016 14:35:21  MaxMaster
13 344 09-04-2016 20:30:46  aldushin
5 258 06-04-2016 17:28:09  daguss
996 90950 29-03-2016 17:50:18  sva-don
14 353 26-03-2016 10:17:16  Егорий
297 Закрыта Резко упала мощность  Neudrums
10 298 24-03-2016 00:59:57  Neudrums
5 399 22-03-2016 20:12:39  Дилик
19 1496 16-03-2016 23:19:45  Falcor
300 Прошу помощи.  Назар
5 284 16-03-2016 09:51:09  Назар
8 222 14-03-2016 16:51:53  Расулыч
21 6318 13-03-2016 19:24:18  barabaschka09
7 300 10-03-2016 20:36:59  chirik
5 676 07-03-2016 20:32:32  Flint2015
19 1643 04-03-2016 17:27:39  Airside
4 179 29-02-2016 22:43:44  nikson
5 158 27-02-2016 08:50:26  Flint2015
308 Тестирование размера реза  Виктор Краски
9 456 26-02-2016 16:55:55  daguss
309 кривая резка  Восходник
17 441 26-02-2016 00:06:30  semerochka
80 5398 22-02-2016 20:51:36  Kinetic
32 916 22-02-2016 20:11:19  Kinetic
17 839 22-02-2016 12:02:26  Kinetic
30 914 19-02-2016 21:54:44  Rudiarius
5 511 14-02-2016 15:24:59  gabber
7 329 14-02-2016 12:43:54  Zippo
12 363 12-02-2016 17:15:38  Yaroslavl
2 180 12-02-2016 10:23:44  Администратор
22 824 07-02-2016 15:27:40  Imobile
6 291 28-01-2016 17:09:21  StarPOM
25 856 26-01-2016 15:23:58  Zippo

Вы здесь » Форум клана ЧПУшников » Лазерные станки